Time,TemperatureF,DewpointF,PressureIn,WindDirection,WindDirectionDegrees,WindSpeedMPH,WindSpeedGustMPH,Humidity,HourlyPrecipIn,Conditions,Clouds,dailyrainin,SoftwareType,DateUTC
2013-01-14 00:03:00,6.6,3.0,30.28,WSW,257,6.0,6.0,85,0.00,,,0.00,meteohub,2013-01-14 06:03:00,
2013-01-14 00:08:00,6.8,3.2,30.28,North,-999,-999.0,6.0,85,0.00,,,0.00,meteohub,2013-01-14 06:08:00,
2013-01-14 00:13:00,6.4,2.7,30.28,West,263,6.0,6.0,84,0.00,,,0.00,meteohub,2013-01-14 06:13:00,
2013-01-14 00:18:00,6.1,2.3,30.28,West,265,7.0,7.0,84,0.00,,,0.00,meteohub,2013-01-14 06:18:00,
2013-01-14 00:23:00,5.9,2.1,30.28,West,266,6.0,7.0,84,0.00,,,0.00,meteohub,2013-01-14 06:23:00,
2013-01-14 00:28:00,5.7,1.9,30.28,West,268,6.0,7.0,84,0.00,,,0.00,meteohub,2013-01-14 06:28:00,
2013-01-14 00:33:00,5.7,2.1,30.28,West,271,5.0,7.0,85,0.00,,,0.00,meteohub,2013-01-14 06:33:00,
2013-01-14 00:38:00,6.1,2.5,30.28,West,275,6.0,7.0,85,0.00,,,0.00,meteohub,2013-01-14 06:38:00,
2013-01-14 00:43:00,6.3,2.7,30.28,West,270,5.0,7.0,85,0.00,,,0.00,meteohub,2013-01-14 06:43:00,
2013-01-14 00:48:00,6.6,3.0,30.28,West,261,7.0,7.0,85,0.00,,,0.00,meteohub,2013-01-14 06:48:00,
2013-01-14 00:53:00,6.8,3.0,30.28,West,260,7.0,7.0,84,0.00,,,0.00,meteohub,2013-01-14 06:53:00,
2013-01-14 00:59:00,7.0,3.2,30.28,WSW,250,7.0,7.0,84,0.00,,,0.00,meteohub,2013-01-14 06:59:00,
2013-01-14 01:04:00,6.6,2.5,30.28,WSW,254,6.0,7.0,83,0.00,,,0.00,meteohub,2013-01-14 07:04:00,
2013-01-14 01:09:00,5.9,1.9,30.28,West,263,8.0,8.0,83,0.00,,,0.00,meteohub,2013-01-14 07:09:00,
2013-01-14 01:14:00,5.4,1.4,30.28,West,263,7.0,9.0,83,0.00,,,0.00,meteohub,2013-01-14 07:14:00,
2013-01-14 01:19:00,5.2,1.4,30.28,WSW,257,6.0,9.0,84,0.00,,,0.00,meteohub,2013-01-14 07:19:00,
2013-01-14 01:24:00,5.5,1.9,30.28,WSW,255,8.0,9.0,85,0.00,,,0.00,meteohub,2013-01-14 07:24:00,
2013-01-14 01:29:00,5.9,2.3,30.29,WSW,256,7.0,9.0,85,0.00,,,0.00,meteohub,2013-01-14 07:29:00,
2013-01-14 01:34:00,6.1,2.3,30.29,WSW,252,7.0,9.0,84,0.00,,,0.00,meteohub,2013-01-14 07:34:00,
2013-01-14 01:39:00,6.3,2.5,30.29,WSW,256,7.0,9.0,84,0.00,,,0.00,meteohub,2013-01-14 07:39:00,
2013-01-14 01:44:00,6.4,2.7,30.29,WSW,258,5.0,9.0,84,0.00,,,0.00,meteohub,2013-01-14 07:44:00,
2013-01-14 01:49:00,6.4,2.7,30.29,WSW,257,5.0,9.0,84,0.00,,,0.00,meteohub,2013-01-14 07:49:00,
2013-01-14 01:54:00,6.4,2.7,30.29,WSW,257,4.0,8.0,84,0.00,,,0.00,meteohub,2013-01-14 07:54:00,
2013-01-14 01:59:00,6.1,2.1,30.29,WSW,257,3.0,7.0,83,0.00,,,0.00,meteohub,2013-01-14 07:59:00,
2013-01-14 02:04:00,5.0,1.0,30.29,WSW,257,4.0,6.0,83,0.00,,,0.00,meteohub,2013-01-14 08:04:00,
2013-01-14 02:09:00,5.4,1.8,30.29,WSW,257,5.0,5.0,85,0.00,,,0.00,meteohub,2013-01-14 08:09:00,
2013-01-14 02:14:00,5.5,1.9,30.29,WSW,257,4.0,5.0,85,0.00,,,0.00,meteohub,2013-01-14 08:14:00,
2013-01-14 02:19:00,5.9,2.3,30.29,WSW,257,5.0,5.0,85,0.00,,,0.00,meteohub,2013-01-14 08:19:00,
2013-01-14 02:24:00,6.1,2.3,30.29,WSW,257,3.0,5.0,84,0.00,,,0.00,meteohub,2013-01-14 08:24:00,
2013-01-14 02:29:00,5.2,1.2,30.30,WSW,257,4.0,5.0,83,0.00,,,0.00,meteohub,2013-01-14 08:29:00,
2013-01-14 02:34:00,5.4,1.8,30.30,WSW,257,5.0,5.0,85,0.00,,,0.00,meteohub,2013-01-14 08:34:00,
2013-01-14 02:39:00,5.7,1.9,30.30,WSW,256,4.0,6.0,84,0.00,,,0.00,meteohub,2013-01-14 08:39:00,
2013-01-14 02:44:00,5.7,1.9,30.30,WSW,247,6.0,6.0,84,0.00,,,0.00,meteohub,2013-01-14 08:44:00,
2013-01-14 02:49:00,5.5,1.8,30.31,WSW,242,6.0,7.0,84,0.00,,,0.00,meteohub,2013-01-14 08:49:00,
2013-01-14 02:54:00,5.5,1.8,30.31,WSW,250,6.0,7.0,84,0.00,,,0.00,meteohub,2013-01-14 08:54:00,
2013-01-14 02:59:00,5.4,1.6,30.31,WSW,254,5.0,7.0,84,0.00,,,0.00,meteohub,2013-01-14 08:59:00,
2013-01-14 03:04:00,5.4,1.6,30.31,WSW,253,5.0,7.0,84,0.00,,,0.00,meteohub,2013-01-14 09:04:00,
2013-01-14 03:09:00,5.4,1.6,30.31,WSW,253,6.0,7.0,84,0.00,,,0.00,meteohub,2013-01-14 09:09:00,
2013-01-14 03:14:00,5.4,1.6,30.31,WSW,253,6.0,7.0,84,0.00,,,0.00,meteohub,2013-01-14 09:14:00,
2013-01-14 03:19:00,5.2,1.4,30.31,WSW,253,5.0,7.0,84,0.00,,,0.00,meteohub,2013-01-14 09:19:00,
2013-01-14 03:24:00,5.2,1.4,30.31,WSW,253,6.0,7.0,84,0.00,,,0.00,meteohub,2013-01-14 09:24:00,
2013-01-14 03:29:00,5.0,1.2,30.31,WSW,253,5.0,7.0,84,0.00,,,0.00,meteohub,2013-01-14 09:29:00,
2013-01-14 03:34:00,4.8,1.0,30.31,WSW,253,4.0,7.0,84,0.00,,,0.00,meteohub,2013-01-14 09:34:00,
2013-01-14 03:39:00,4.5,0.7,30.31,WSW,253,4.0,7.0,84,0.00,,,0.00,meteohub,2013-01-14 09:39:00,
2013-01-14 03:44:00,4.5,0.7,30.31,WSW,253,5.0,6.0,84,0.00,,,0.00,meteohub,2013-01-14 09:44:00,
2013-01-14 03:49:00,4.5,0.7,30.30,WSW,257,7.0,7.0,84,0.00,,,0.00,meteohub,2013-01-14 09:49:00,
2013-01-14 03:54:00,4.5,1.0,30.31,West,260,6.0,7.0,85,0.00,,,0.00,meteohub,2013-01-14 09:54:00,
2013-01-14 03:59:00,4.3,0.9,30.30,West,261,7.0,7.0,85,0.00,,,0.00,meteohub,2013-01-14 09:59:00,
2013-01-14 04:04:00,3.9,0.1,30.30,West,261,8.0,8.0,84,0.00,,,0.00,meteohub,2013-01-14 10:04:00,
2013-01-14 04:09:00,3.7,0.0,30.30,West,260,9.0,9.0,84,0.00,,,0.00,meteohub,2013-01-14 10:09:00,
2013-01-14 04:14:00,3.4,-0.4,30.30,West,262,7.0,9.0,84,0.00,,,0.00,meteohub,2013-01-14 10:14:00,
2013-01-14 04:19:00,3.2,-0.6,30.30,West,262,5.0,9.0,84,0.00,,,0.00,meteohub,2013-01-14 10:19:00,
2013-01-14 04:24:00,3.6,0.1,30.30,West,262,5.0,9.0,85,0.00,,,0.00,meteohub,2013-01-14 10:24:00,
2013-01-14 04:29:00,3.7,0.3,30.30,West,262,5.0,8.0,85,0.00,,,0.00,meteohub,2013-01-14 10:29:00,
2013-01-14 04:34:00,3.7,0.3,30.30,West,262,5.0,7.0,85,0.00,,,0.00,meteohub,2013-01-14 10:34:00,
2013-01-14 04:39:00,3.9,0.5,30.30,West,262,5.0,6.0,85,0.00,,,0.00,meteohub,2013-01-14 10:39:00,
2013-01-14 04:44:00,3.7,0.3,30.29,West,262,4.0,6.0,85,0.00,,,0.00,meteohub,2013-01-14 10:44:00,
2013-01-14 04:49:00,3.7,0.3,30.29,West,262,4.0,6.0,85,0.00,,,0.00,meteohub,2013-01-14 10:49:00,
2013-01-14 04:55:00,3.6,0.1,30.30,West,262,5.0,6.0,85,0.00,,,0.00,meteohub,2013-01-14 10:55:00,
2013-01-14 05:00:00,3.2,-0.6,30.30,West,262,4.0,6.0,84,0.00,,,0.00,meteohub,2013-01-14 11:00:00,
2013-01-14 05:05:00,2.8,-0.9,30.30,West,262,5.0,6.0,84,0.00,,,0.00,meteohub,2013-01-14 11:05:00,
2013-01-14 05:10:00,3.0,-0.4,30.30,West,262,4.0,6.0,85,0.00,,,0.00,meteohub,2013-01-14 11:10:00,
2013-01-14 05:15:00,3.6,0.3,30.30,West,262,4.0,6.0,86,0.00,,,0.00,meteohub,2013-01-14 11:15:00,
2013-01-14 05:20:00,3.6,0.1,30.30,West,262,5.0,5.0,85,0.00,,,0.00,meteohub,2013-01-14 11:20:00,
2013-01-14 05:25:00,3.7,0.3,30.30,West,262,4.0,5.0,85,0.00,,,0.00,meteohub,2013-01-14 11:25:00,
2013-01-14 05:30:00,3.7,0.3,30.30,West,262,4.0,5.0,85,0.00,,,0.00,meteohub,2013-01-14 11:30:00,
2013-01-14 05:35:00,3.6,0.1,30.30,West,262,4.0,5.0,85,0.00,,,0.00,meteohub,2013-01-14 11:35:00,
2013-01-14 05:40:00,3.7,0.3,30.31,West,262,5.0,6.0,85,0.00,,,0.00,meteohub,2013-01-14 11:40:00,
2013-01-14 05:45:00,3.7,0.0,30.31,West,262,4.0,6.0,84,0.00,,,0.00,meteohub,2013-01-14 11:45:00,
2013-01-14 05:50:00,3.6,-0.2,30.31,West,262,4.0,6.0,84,0.00,,,0.00,meteohub,2013-01-14 11:50:00,
2013-01-14 05:55:00,3.7,0.3,30.31,West,262,4.0,5.0,85,0.00,,,0.00,meteohub,2013-01-14 11:55:00,
2013-01-14 06:00:00,3.7,0.3,30.31,West,262,5.0,5.0,85,0.00,,,0.00,meteohub,2013-01-14 12:00:00,
2013-01-14 06:05:00,3.6,-0.2,30.32,West,262,4.0,5.0,84,0.00,,,0.00,meteohub,2013-01-14 12:05:00,
2013-01-14 06:10:00,3.6,0.1,30.32,West,262,4.0,5.0,85,0.00,,,0.00,meteohub,2013-01-14 12:10:00,
2013-01-14 06:15:00,3.7,0.3,30.32,West,262,5.0,5.0,85,0.00,,,0.00,meteohub,2013-01-14 12:15:00,
2013-01-14 06:20:00,3.9,0.5,30.33,West,259,5.0,6.0,85,0.00,,,0.00,meteohub,2013-01-14 12:20:00,
2013-01-14 06:25:00,3.7,0.0,30.33,West,259,5.0,7.0,84,0.00,,,0.00,meteohub,2013-01-14 12:25:00,
2013-01-14 06:30:00,2.8,-1.1,30.33,West,259,5.0,7.0,83,0.00,,,0.00,meteohub,2013-01-14 12:30:00,
2013-01-14 06:35:00,2.8,-0.9,30.33,West,259,5.0,7.0,84,0.00,,,0.00,meteohub,2013-01-14 12:35:00,
2013-01-14 06:40:00,3.4,0.0,30.33,WSW,248,5.0,6.0,85,0.00,,,0.00,meteohub,2013-01-14 12:40:00,
2013-01-14 06:45:00,3.9,0.5,30.34,WSW,247,5.0,6.0,85,0.00,,,0.00,meteohub,2013-01-14 12:45:00,
2013-01-14 06:50:00,3.9,0.5,30.34,WSW,252,5.0,7.0,85,0.00,,,0.00,meteohub,2013-01-14 12:50:00,
2013-01-14 06:55:00,3.9,0.1,30.34,WSW,254,5.0,7.0,84,0.00,,,0.00,meteohub,2013-01-14 12:55:00,
2013-01-14 07:00:00,3.9,0.1,30.34,West,264,5.0,7.0,84,0.00,,,0.00,meteohub,2013-01-14 13:00:00,
2013-01-14 07:05:00,3.7,0.0,30.34,West,263,5.0,6.0,84,0.00,,,0.00,meteohub,2013-01-14 13:05:00,
2013-01-14 07:10:00,3.6,-0.2,30.35,WSW,246,4.0,6.0,84,0.00,,,0.00,meteohub,2013-01-14 13:10:00,
2013-01-14 07:15:00,3.4,-0.4,30.35,WSW,244,7.0,7.0,84,0.00,,,0.00,meteohub,2013-01-14 13:15:00,
2013-01-14 07:20:00,3.4,0.0,30.35,WSW,245,7.0,8.0,85,0.00,,,0.00,meteohub,2013-01-14 13:20:00,
2013-01-14 07:25:00,3.6,0.1,30.35,WSW,252,5.0,8.0,85,0.00,,,0.00,meteohub,2013-01-14 13:25:00,
2013-01-14 07:30:00,3.6,0.1,30.35,WSW,257,5.0,8.0,85,0.00,,,0.00,meteohub,2013-01-14 13:30:00,
2013-01-14 07:35:00,3.6,0.1,30.35,WSW,257,5.0,8.0,85,0.00,,,0.00,meteohub,2013-01-14 13:35:00,
2013-01-14 07:40:00,3.4,0.0,30.35,WSW,257,5.0,8.0,85,0.00,,,0.00,meteohub,2013-01-14 13:40:00,
2013-01-14 07:45:00,3.4,0.0,30.35,WSW,258,5.0,6.0,85,0.00,,,0.00,meteohub,2013-01-14 13:45:00,
2013-01-14 07:50:00,3.4,0.0,30.35,WSW,257,5.0,7.0,85,0.00,,,0.00,meteohub,2013-01-14 13:50:00,
2013-01-14 07:55:00,3.6,0.1,30.35,WSW,250,6.0,7.0,85,0.00,,,0.00,meteohub,2013-01-14 13:55:00,
2013-01-14 08:00:00,3.6,0.1,30.35,WSW,251,6.0,7.0,85,0.00,,,0.00,meteohub,2013-01-14 14:00:00,
2013-01-14 08:05:00,3.6,0.1,30.35,WSW,250,5.0,7.0,85,0.00,,,0.00,meteohub,2013-01-14 14:05:00,
2013-01-14 08:10:00,3.7,0.0,30.36,WSW,246,4.0,7.0,84,0.00,,,0.00,meteohub,2013-01-14 14:10:00,
2013-01-14 08:15:00,3.6,-0.2,30.36,WSW,241,5.0,7.0,84,0.00,,,0.00,meteohub,2013-01-14 14:15:00,
2013-01-14 08:20:00,3.7,0.0,30.36,WSW,248,5.0,7.0,84,0.00,,,0.00,meteohub,2013-01-14 14:20:00,
2013-01-14 08:25:00,3.7,0.0,30.36,WSW,244,4.0,7.0,84,0.00,,,0.00,meteohub,2013-01-14 14:25:00,
2013-01-14 08:30:00,3.9,0.1,30.36,WSW,247,6.0,7.0,84,0.00,,,0.00,meteohub,2013-01-14 14:30:00,
2013-01-14 08:35:00,4.3,0.5,30.37,WSW,247,6.0,6.0,84,0.00,,,0.00,meteohub,2013-01-14 14:35:00,
2013-01-14 08:40:00,4.5,0.7,30.37,WSW,244,6.0,7.0,84,0.00,,,0.00,meteohub,2013-01-14 14:40:00,
2013-01-14 08:46:00,4.6,0.7,30.37,WSW,254,5.0,7.0,83,0.00,,,0.00,meteohub,2013-01-14 14:46:00,
2013-01-14 08:51:00,4.6,0.7,30.37,WSW,252,6.0,7.0,83,0.00,,,0.00,meteohub,2013-01-14 14:51:00,
2013-01-14 08:56:00,5.2,1.4,30.37,WSW,257,6.0,7.0,84,0.00,,,0.00,meteohub,2013-01-14 14:56:00,
2013-01-14 09:01:00,5.5,1.8,30.38,West,259,6.0,8.0,84,0.00,,,0.00,meteohub,2013-01-14 15:01:00,
2013-01-14 09:06:00,5.7,1.9,30.38,West,259,7.0,8.0,84,0.00,,,0.00,meteohub,2013-01-14 15:06:00,
2013-01-14 09:11:00,5.9,2.1,30.38,West,265,8.0,9.0,84,0.00,,,0.00,meteohub,2013-01-14 15:11:00,
2013-01-14 09:16:00,6.3,2.5,30.38,West,266,7.0,9.0,84,0.00,,,0.00,meteohub,2013-01-14 15:16:00,
2013-01-14 09:21:00,6.6,2.8,30.37,West,261,7.0,9.0,84,0.00,,,0.00,meteohub,2013-01-14 15:21:00,
2013-01-14 09:26:00,7.3,3.6,30.37,West,264,6.0,9.0,84,0.00,,,0.00,meteohub,2013-01-14 15:26:00,
2013-01-14 09:31:00,7.9,4.1,30.37,WSW,257,5.0,8.0,84,0.00,,,0.00,meteohub,2013-01-14 15:31:00,
2013-01-14 09:36:00,8.2,4.1,30.37,West,259,6.0,7.0,83,0.00,,,0.00,meteohub,2013-01-14 15:36:00,
2013-01-14 09:41:00,8.4,4.3,30.37,WSW,251,5.0,7.0,83,0.00,,,0.00,meteohub,2013-01-14 15:41:00,
2013-01-14 09:46:00,9.7,5.4,30.37,SW,233,4.0,7.0,82,0.00,,,0.00,meteohub,2013-01-14 15:46:00,
2013-01-14 09:51:00,10.0,5.7,30.38,SW,229,6.0,7.0,82,0.00,,,0.00,meteohub,2013-01-14 15:51:00,
2013-01-14 09:56:00,10.0,5.7,30.37,WSW,242,6.0,7.0,82,0.00,,,0.00,meteohub,2013-01-14 15:56:00,
2013-01-14 10:01:00,10.6,5.9,30.37,WSW,238,4.0,7.0,81,0.00,,,0.00,meteohub,2013-01-14 16:01:00,
2013-01-14 10:06:00,10.8,5.9,30.37,WSW,238,8.0,8.0,80,0.00,,,0.00,meteohub,2013-01-14 16:06:00,
2013-01-14 10:11:00,11.1,6.4,30.37,SW,236,6.0,9.0,81,0.00,,,0.00,meteohub,2013-01-14 16:11:00,
2013-01-14 10:16:00,11.5,6.4,30.37,WSW,241,5.0,9.0,80,0.00,,,0.00,meteohub,2013-01-14 16:16:00,
2013-01-14 10:21:00,11.8,7.2,30.37,SW,224,6.0,9.0,81,0.00,,,0.00,meteohub,2013-01-14 16:21:00,
2013-01-14 10:26:00,11.8,6.8,30.37,SW,229,7.0,9.0,80,0.00,,,0.00,meteohub,2013-01-14 16:26:00,
2013-01-14 10:31:00,12.2,7.2,30.37,SW,227,7.0,8.0,80,0.00,,,0.00,meteohub,2013-01-14 16:31:00,
2013-01-14 10:36:00,12.4,7.3,30.37,SW,230,7.0,8.0,80,0.00,,,0.00,meteohub,2013-01-14 16:36:00,
2013-01-14 10:41:00,12.6,7.5,30.36,SW,221,6.0,8.0,80,0.00,,,0.00,meteohub,2013-01-14 16:41:00,
2013-01-14 10:46:00,12.6,7.5,30.36,SW,221,5.0,8.0,80,0.00,,,0.00,meteohub,2013-01-14 16:46:00,
2013-01-14 10:51:00,13.3,8.2,30.36,WSW,240,5.0,8.0,80,0.00,,,0.00,meteohub,2013-01-14 16:51:00,
2013-01-14 10:56:00,13.5,8.4,30.36,SW,225,5.0,7.0,80,0.00,,,0.00,meteohub,2013-01-14 16:56:00,
2013-01-14 11:01:00,13.6,8.6,30.36,SW,223,6.0,7.0,80,0.00,,,0.00,meteohub,2013-01-14 17:01:00,
2013-01-14 11:06:00,14.0,8.8,30.35,SW,231,5.0,7.0,79,0.00,,,0.00,meteohub,2013-01-14 17:06:00,
2013-01-14 11:11:00,14.4,9.0,30.35,WSW,240,3.0,7.0,79,0.00,,,0.00,meteohub,2013-01-14 17:11:00,
2013-01-14 11:16:00,14.7,9.1,30.35,WSW,238,6.0,8.0,78,0.00,,,0.00,meteohub,2013-01-14 17:16:00,
2013-01-14 11:21:00,15.1,9.5,30.35,WSW,239,7.0,8.0,78,0.00,,,0.00,meteohub,2013-01-14 17:21:00,
2013-01-14 11:26:00,15.4,9.9,30.34,WSW,251,6.0,8.0,78,0.00,,,0.00,meteohub,2013-01-14 17:26:00,
2013-01-14 11:31:00,15.8,9.9,30.34,WSW,248,7.0,9.0,77,0.00,,,0.00,meteohub,2013-01-14 17:31:00,
2013-01-14 11:36:00,16.2,10.6,30.34,WSW,251,7.0,9.0,78,0.00,,,0.00,meteohub,2013-01-14 17:36:00,
2013-01-14 11:41:00,16.3,10.4,30.33,WSW,244,7.0,9.0,77,0.00,,,0.00,meteohub,2013-01-14 17:41:00,
2013-01-14 11:46:00,16.7,10.8,30.33,WSW,258,7.0,9.0,77,0.00,,,0.00,meteohub,2013-01-14 17:46:00,
2013-01-14 11:51:00,16.9,10.6,30.33,WSW,244,6.0,9.0,76,0.00,,,0.00,meteohub,2013-01-14 17:51:00,
2013-01-14 11:56:00,17.1,10.8,30.33,SW,235,5.0,9.0,76,0.00,,,0.00,meteohub,2013-01-14 17:56:00,
2013-01-14 12:01:00,17.4,11.1,30.32,WSW,246,5.0,9.0,76,0.00,,,0.00,meteohub,2013-01-14 18:01:00,
2013-01-14 12:06:00,18.0,12.0,30.32,SW,221,7.0,8.0,77,0.00,,,0.00,meteohub,2013-01-14 18:06:00,
2013-01-14 12:11:00,18.3,12.0,30.32,SW,225,9.0,10.0,76,0.00,,,0.00,meteohub,2013-01-14 18:11:00,
2013-01-14 12:16:00,18.3,11.7,30.32,WSW,239,8.0,11.0,75,0.00,,,0.00,meteohub,2013-01-14 18:16:00,
2013-01-14 12:21:00,18.7,11.8,30.31,SW,230,8.0,11.0,74,0.00,,,0.00,meteohub,2013-01-14 18:21:00,
2013-01-14 12:26:00,18.9,12.9,30.31,SW,229,8.0,11.0,77,0.00,,,0.00,meteohub,2013-01-14 18:26:00,
2013-01-14 12:31:00,19.2,12.9,30.31,SW,225,7.0,11.0,76,0.00,,,0.00,meteohub,2013-01-14 18:31:00,
2013-01-14 12:36:00,19.6,12.9,30.31,SW,215,8.0,11.0,75,0.00,,,0.00,meteohub,2013-01-14 18:36:00,
2013-01-14 12:41:00,19.8,12.7,30.30,SW,229,8.0,11.0,74,0.00,,,0.00,meteohub,2013-01-14 18:41:00,
2013-01-14 12:46:00,19.9,13.3,30.30,SW,226,7.0,11.0,75,0.00,,,0.00,meteohub,2013-01-14 18:46:00,
2013-01-14 12:51:00,20.1,13.5,30.30,SW,236,7.0,11.0,75,0.00,,,0.00,meteohub,2013-01-14 18:51:00,
2013-01-14 12:56:00,20.3,12.7,30.30,SW,223,9.0,11.0,72,0.00,,,0.00,meteohub,2013-01-14 18:56:00,
2013-01-14 13:02:00,20.7,13.1,30.30,SW,228,9.0,10.0,72,0.00,,,0.00,meteohub,2013-01-14 19:02:00,
2013-01-14 13:06:00,20.7,13.1,30.30,WSW,237,9.0,12.0,72,0.00,,,0.00,meteohub,2013-01-14 19:06:00,
2013-01-14 13:11:00,21.2,13.6,30.29,SW,228,7.0,12.0,72,0.00,,,0.00,meteohub,2013-01-14 19:11:00,
2013-01-14 13:17:00,21.4,13.5,30.29,SW,225,13.0,13.0,71,0.00,,,0.00,meteohub,2013-01-14 19:17:00,
2013-01-14 13:22:00,21.6,12.9,30.29,SW,229,10.0,14.0,69,0.00,,,0.00,meteohub,2013-01-14 19:22:00,
2013-01-14 13:27:00,21.7,13.5,30.28,WSW,237,12.0,14.0,70,0.00,,,0.00,meteohub,2013-01-14 19:27:00,
2013-01-14 13:32:00,21.9,13.3,30.28,WSW,252,5.0,14.0,69,0.00,,,0.00,meteohub,2013-01-14 19:32:00,
2013-01-14 13:37:00,21.9,12.9,30.28,SW,233,11.0,15.0,68,0.00,,,0.00,meteohub,2013-01-14 19:37:00,
2013-01-14 13:42:00,22.1,12.7,30.28,SW,232,8.0,15.0,67,0.00,,,0.00,meteohub,2013-01-14 19:42:00,
2013-01-14 13:47:00,22.5,13.8,30.28,WSW,238,11.0,15.0,69,0.00,,,0.00,meteohub,2013-01-14 19:47:00,
2013-01-14 13:52:00,22.5,13.1,30.28,SW,223,10.0,15.0,67,0.00,,,0.00,meteohub,2013-01-14 19:52:00,
2013-01-14 13:57:00,22.5,12.7,30.27,SW,232,9.0,13.0,66,0.00,,,0.00,meteohub,2013-01-14 19:57:00,
2013-01-14 14:02:00,22.8,14.2,30.27,West,263,8.0,13.0,69,0.00,,,0.00,meteohub,2013-01-14 20:02:00,
2013-01-14 14:07:00,22.8,12.6,30.27,WSW,247,10.0,12.0,64,0.00,,,0.00,meteohub,2013-01-14 20:07:00,
2013-01-14 14:12:00,22.6,12.7,30.27,WSW,250,9.0,12.0,65,0.00,,,0.00,meteohub,2013-01-14 20:12:00,
2013-01-14 14:17:00,22.8,12.6,30.27,WSW,250,10.0,12.0,64,0.00,,,0.00,meteohub,2013-01-14 20:17:00,
2013-01-14 14:22:00,22.8,12.6,30.27,WSW,240,8.0,12.0,64,0.00,,,0.00,meteohub,2013-01-14 20:22:00,
2013-01-14 14:27:00,23.0,11.8,30.27,WSW,248,8.0,12.0,62,0.00,,,0.00,meteohub,2013-01-14 20:27:00,
2013-01-14 14:32:00,22.8,11.8,30.27,WSW,257,8.0,14.0,62,0.00,,,0.00,meteohub,2013-01-14 20:32:00,
2013-01-14 14:37:00,22.8,11.8,30.27,West,261,9.0,14.0,62,0.00,,,0.00,meteohub,2013-01-14 20:37:00,
2013-01-14 14:42:00,23.0,11.5,30.27,WSW,257,6.0,14.0,61,0.00,,,0.00,meteohub,2013-01-14 20:42:00,
2013-01-14 14:47:00,22.8,11.3,30.27,WSW,240,6.0,14.0,61,0.00,,,0.00,meteohub,2013-01-14 20:47:00,
2013-01-14 14:52:00,22.6,12.4,30.27,West,261,7.0,13.0,64,0.00,,,0.00,meteohub,2013-01-14 20:52:00,
2013-01-14 14:57:00,22.3,11.7,30.27,WSW,247,7.0,11.0,63,0.00,,,0.00,meteohub,2013-01-14 20:57:00,
2013-01-14 15:02:00,22.1,12.7,30.27,WSW,255,8.0,10.0,67,0.00,,,0.00,meteohub,2013-01-14 21:02:00,
2013-01-14 15:07:00,22.5,12.6,30.27,West,272,8.0,10.0,65,0.00,,,0.00,meteohub,2013-01-14 21:07:00,
2013-01-14 15:12:00,22.5,12.6,30.27,WSW,254,8.0,10.0,65,0.00,,,0.00,meteohub,2013-01-14 21:12:00,
2013-01-14 15:17:00,22.6,12.7,30.27,WSW,248,4.0,10.0,65,0.00,,,0.00,meteohub,2013-01-14 21:17:00,
2013-01-14 15:22:00,22.8,12.7,30.27,WSW,252,6.0,10.0,65,0.00,,,0.00,meteohub,2013-01-14 21:22:00,
2013-01-14 15:27:00,22.5,12.6,30.27,WSW,247,6.0,10.0,65,0.00,,,0.00,meteohub,2013-01-14 21:27:00,
2013-01-14 15:32:00,22.3,12.7,30.27,WSW,243,5.0,7.0,66,0.00,,,0.00,meteohub,2013-01-14 21:32:00,
2013-01-14 15:37:00,22.6,13.3,30.27,WSW,243,5.0,8.0,67,0.00,,,0.00,meteohub,2013-01-14 21:37:00,
2013-01-14 15:42:00,22.6,12.9,30.27,WSW,244,4.0,8.0,66,0.00,,,0.00,meteohub,2013-01-14 21:42:00,
2013-01-14 15:47:00,22.6,12.7,30.27,SW,223,5.0,9.0,65,0.00,,,0.00,meteohub,2013-01-14 21:47:00,
2013-01-14 15:52:00,22.6,12.0,30.27,West,259,7.0,9.0,63,0.00,,,0.00,meteohub,2013-01-14 21:52:00,
2013-01-14 15:57:00,22.5,11.8,30.27,WSW,254,6.0,9.0,63,0.00,,,0.00,meteohub,2013-01-14 21:57:00,
2013-01-14 16:02:00,22.5,12.2,30.28,WSW,252,6.0,9.0,64,0.00,,,0.00,meteohub,2013-01-14 22:02:00,
2013-01-14 16:07:00,22.3,12.0,30.28,WSW,248,4.0,9.0,64,0.00,,,0.00,meteohub,2013-01-14 22:07:00,
2013-01-14 16:12:00,22.3,12.0,30.27,WSW,245,5.0,9.0,64,0.00,,,0.00,meteohub,2013-01-14 22:12:00,
2013-01-14 16:17:00,22.3,11.7,30.28,WSW,245,3.0,9.0,63,0.00,,,0.00,meteohub,2013-01-14 22:17:00,
2013-01-14 16:22:00,22.1,12.6,30.28,WSW,239,5.0,7.0,66,0.00,,,0.00,meteohub,2013-01-14 22:22:00,
2013-01-14 16:27:00,21.9,12.4,30.28,WSW,242,4.0,7.0,66,0.00,,,0.00,meteohub,2013-01-14 22:27:00,
2013-01-14 16:32:00,21.9,12.6,30.28,SW,229,5.0,6.0,67,0.00,,,0.00,meteohub,2013-01-14 22:32:00,
2013-01-14 16:37:00,21.6,13.6,30.28,SW,227,5.0,6.0,71,0.00,,,0.00,meteohub,2013-01-14 22:37:00,
2013-01-14 16:42:00,21.4,13.8,30.28,SW,222,5.0,7.0,72,0.00,,,0.00,meteohub,2013-01-14 22:42:00,
2013-01-14 16:47:00,21.4,13.8,30.28,SW,225,4.0,7.0,72,0.00,,,0.00,meteohub,2013-01-14 22:47:00,
2013-01-14 16:52:00,21.4,13.8,30.28,SW,225,4.0,7.0,72,0.00,,,0.00,meteohub,2013-01-14 22:52:00,
2013-01-14 16:57:00,21.2,13.8,30.28,SW,225,4.0,6.0,73,0.00,,,0.00,meteohub,2013-01-14 22:57:00,
2013-01-14 17:02:00,21.2,13.6,30.28,SW,225,1.0,5.0,72,0.00,,,0.00,meteohub,2013-01-14 23:02:00,
2013-01-14 17:07:00,21.0,14.0,30.28,SW,225,3.0,5.0,74,0.00,,,0.00,meteohub,2013-01-14 23:07:00,
2013-01-14 17:12:00,21.0,13.8,30.28,SW,225,2.0,5.0,73,0.00,,,0.00,meteohub,2013-01-14 23:12:00,
2013-01-14 17:17:00,20.8,13.6,30.28,SW,225,3.0,4.0,73,0.00,,,0.00,meteohub,2013-01-14 23:17:00,
2013-01-14 17:22:00,20.7,13.5,30.28,SW,225,2.0,4.0,73,0.00,,,0.00,meteohub,2013-01-14 23:22:00,
2013-01-14 17:27:00,20.3,13.3,30.28,SW,225,2.0,4.0,74,0.00,,,0.00,meteohub,2013-01-14 23:27:00,
2013-01-14 17:33:00,19.9,12.9,30.28,SW,225,2.0,4.0,74,0.00,,,0.00,meteohub,2013-01-14 23:33:00,
2013-01-14 17:38:00,19.9,12.9,30.28,SW,225,4.0,4.0,74,0.00,,,0.00,meteohub,2013-01-14 23:38:00,
2013-01-14 17:43:00,19.9,12.9,30.28,SW,225,2.0,4.0,74,0.00,,,0.00,meteohub,2013-01-14 23:43:00,
2013-01-14 17:48:00,19.9,13.3,30.28,SW,225,2.0,5.0,75,0.00,,,0.00,meteohub,2013-01-14 23:48:00,
2013-01-14 17:53:00,18.9,13.1,30.28,SW,225,5.0,5.0,78,0.00,,,0.00,meteohub,2013-01-14 23:53:00,
2013-01-14 17:58:00,18.1,13.1,30.28,SW,225,4.0,5.0,80,0.00,,,0.00,meteohub,2013-01-14 23:58:00,
2013-01-14 18:03:00,18.1,13.1,30.28,SW,225,5.0,5.0,80,0.00,,,0.00,meteohub,2013-01-15 00:03:00,
2013-01-14 18:08:00,18.1,13.1,30.28,SW,225,5.0,5.0,80,0.00,,,0.00,meteohub,2013-01-15 00:08:00,
2013-01-14 18:13:00,18.0,12.9,30.28,SW,225,5.0,6.0,80,0.00,,,0.00,meteohub,2013-01-15 00:13:00,
2013-01-14 18:18:00,18.0,12.6,30.28,SW,225,5.0,6.0,79,0.00,,,0.00,meteohub,2013-01-15 00:18:00,
2013-01-14 18:23:00,18.1,12.4,30.29,SW,225,4.0,6.0,78,0.00,,,0.00,meteohub,2013-01-15 00:23:00,
2013-01-14 18:28:00,18.3,12.4,30.29,SW,225,4.0,5.0,77,0.00,,,0.00,meteohub,2013-01-15 00:28:00,
2013-01-14 18:33:00,18.0,12.2,30.29,SW,225,5.0,5.0,78,0.00,,,0.00,meteohub,2013-01-15 00:33:00,
2013-01-14 18:38:00,17.4,12.4,30.29,SW,225,5.0,6.0,80,0.00,,,0.00,meteohub,2013-01-15 00:38:00,
2013-01-14 18:43:00,17.1,12.0,30.29,SW,225,4.0,6.0,80,0.00,,,0.00,meteohub,2013-01-15 00:43:00,
2013-01-14 18:48:00,17.1,12.0,30.29,SW,225,2.0,6.0,80,0.00,,,0.00,meteohub,2013-01-15 00:48:00,
2013-01-14 18:53:00,17.1,12.0,30.29,SW,225,2.0,6.0,80,0.00,,,0.00,meteohub,2013-01-15 00:53:00,
2013-01-14 18:58:00,16.5,11.5,30.29,SW,225,3.0,5.0,80,0.00,,,0.00,meteohub,2013-01-15 00:58:00,
2013-01-14 19:03:00,16.2,11.3,30.29,SW,225,2.0,4.0,81,0.00,,,0.00,meteohub,2013-01-15 01:03:00,
2013-01-14 19:08:00,16.3,11.5,30.29,SW,225,1.0,4.0,81,0.00,,,0.00,meteohub,2013-01-15 01:08:00,
2013-01-14 19:13:00,16.3,11.5,30.30,SW,225,2.0,4.0,81,0.00,,,0.00,meteohub,2013-01-15 01:13:00,
2013-01-14 19:18:00,16.3,11.3,30.29,SW,225,3.0,4.0,80,0.00,,,0.00,meteohub,2013-01-15 01:18:00,
2013-01-14 19:23:00,16.3,11.5,30.29,SW,225,3.0,4.0,81,0.00,,,0.00,meteohub,2013-01-15 01:23:00,
2013-01-14 19:28:00,16.7,11.7,30.29,SW,225,3.0,4.0,80,0.00,,,0.00,meteohub,2013-01-15 01:28:00,
2013-01-14 19:33:00,16.9,11.5,30.29,SW,225,3.0,5.0,79,0.00,,,0.00,meteohub,2013-01-15 01:33:00,
2013-01-14 19:38:00,16.9,11.5,30.29,SSW,195,5.0,5.0,79,0.00,,,0.00,meteohub,2013-01-15 01:38:00,
2013-01-14 19:43:00,16.5,11.1,30.29,SSW,198,5.0,6.0,79,0.00,,,0.00,meteohub,2013-01-15 01:43:00,
2013-01-14 19:48:00,16.0,10.9,30.29,SSW,197,5.0,6.0,80,0.00,,,0.00,meteohub,2013-01-15 01:48:00,
2013-01-14 19:53:00,15.6,11.1,30.29,SSW,195,3.0,6.0,82,0.00,,,0.00,meteohub,2013-01-15 01:53:00,
2013-01-14 19:58:00,16.0,11.5,30.29,SSW,198,4.0,6.0,82,0.00,,,0.00,meteohub,2013-01-15 01:58:00,
2013-01-14 20:03:00,16.2,11.3,30.29,SSW,199,3.0,7.0,81,0.00,,,0.00,meteohub,2013-01-15 02:03:00,
2013-01-14 20:08:00,16.2,11.3,30.29,SSW,192,5.0,7.0,81,0.00,,,0.00,meteohub,2013-01-15 02:08:00,
2013-01-14 20:13:00,16.0,11.1,30.29,SSW,195,3.0,7.0,81,0.00,,,0.00,meteohub,2013-01-15 02:13:00,
2013-01-14 20:19:00,15.6,11.1,30.29,SW,215,5.0,7.0,82,0.00,,,0.00,meteohub,2013-01-15 02:19:00,
2013-01-14 20:24:00,15.4,10.9,30.29,SSW,207,6.0,7.0,82,0.00,,,0.00,meteohub,2013-01-15 02:24:00,
2013-01-14 20:29:00,15.3,10.8,30.29,SSW,207,6.0,7.0,82,0.00,,,0.00,meteohub,2013-01-15 02:29:00,
2013-01-14 20:34:00,15.1,10.9,30.29,SSW,211,6.0,7.0,83,0.00,,,0.00,meteohub,2013-01-15 02:34:00,
2013-01-14 20:39:00,15.3,11.3,30.29,SSW,211,5.0,7.0,84,0.00,,,0.00,meteohub,2013-01-15 02:39:00,
2013-01-14 20:44:00,16.0,11.5,30.29,SSW,211,5.0,7.0,82,0.00,,,0.00,meteohub,2013-01-15 02:44:00,
2013-01-14 20:49:00,16.2,11.7,30.29,SSW,213,5.0,7.0,82,0.00,,,0.00,meteohub,2013-01-15 02:49:00,
2013-01-14 20:54:00,16.0,11.5,30.29,SW,215,5.0,7.0,82,0.00,,,0.00,meteohub,2013-01-15 02:54:00,
2013-01-14 20:59:00,16.2,11.7,30.29,SW,217,6.0,7.0,82,0.00,,,0.00,meteohub,2013-01-15 02:59:00,
2013-01-14 21:04:00,16.5,11.7,30.29,SW,219,5.0,7.0,81,0.00,,,0.00,meteohub,2013-01-15 03:04:00,
2013-01-14 21:09:00,16.5,11.7,30.29,SW,219,5.0,6.0,81,0.00,,,0.00,meteohub,2013-01-15 03:09:00,
2013-01-14 21:14:00,16.2,11.7,30.29,SW,219,7.0,7.0,82,0.00,,,0.00,meteohub,2013-01-15 03:14:00,
2013-01-14 21:19:00,16.2,11.3,30.28,SW,219,6.0,7.0,81,0.00,,,0.00,meteohub,2013-01-15 03:19:00,
2013-01-14 21:24:00,16.2,11.3,30.28,SW,219,8.0,8.0,81,0.00,,,0.00,meteohub,2013-01-15 03:24:00,
2013-01-14 21:29:00,16.0,11.5,30.28,SW,219,7.0,8.0,82,0.00,,,0.00,meteohub,2013-01-15 03:29:00,
2013-01-14 21:34:00,15.8,11.3,30.28,SW,215,7.0,8.0,82,0.00,,,0.00,meteohub,2013-01-15 03:34:00,
2013-01-14 21:39:00,15.8,11.3,30.28,SW,221,5.0,8.0,82,0.00,,,0.00,meteohub,2013-01-15 03:39:00,
2013-01-14 21:44:00,16.0,11.5,30.28,SW,225,7.0,8.0,82,0.00,,,0.00,meteohub,2013-01-15 03:44:00,
2013-01-14 21:49:00,16.3,11.3,30.28,SW,224,5.0,8.0,80,0.00,,,0.00,meteohub,2013-01-15 03:49:00,
2013-01-14 21:54:00,16.5,11.5,30.28,SW,224,5.0,8.0,80,0.00,,,0.00,meteohub,2013-01-15 03:54:00,
2013-01-14 21:59:00,16.5,11.5,30.28,SW,224,5.0,8.0,80,0.00,,,0.00,meteohub,2013-01-15 03:59:00,
2013-01-14 22:04:00,16.9,11.5,30.28,SW,224,5.0,8.0,79,0.00,,,0.00,meteohub,2013-01-15 04:04:00,
2013-01-14 22:09:00,16.9,11.3,30.27,SW,224,4.0,7.0,78,0.00,,,0.00,meteohub,2013-01-15 04:09:00,
2013-01-14 22:14:00,16.2,11.1,30.28,SW,224,5.0,6.0,80,0.00,,,0.00,meteohub,2013-01-15 04:14:00,
2013-01-14 22:19:00,15.8,11.3,30.27,SW,220,7.0,7.0,82,0.00,,,0.00,meteohub,2013-01-15 04:19:00,
2013-01-14 22:24:00,16.0,11.5,30.27,SW,219,6.0,7.0,82,0.00,,,0.00,meteohub,2013-01-15 04:24:00,
2013-01-14 22:29:00,16.2,11.8,30.27,SW,220,7.0,7.0,83,0.00,,,0.00,meteohub,2013-01-15 04:29:00,
2013-01-14 22:35:00,16.3,12.0,30.27,SW,220,6.0,7.0,83,0.00,,,0.00,meteohub,2013-01-15 04:35:00,
2013-01-14 22:40:00,17.1,12.2,30.27,SW,220,6.0,7.0,81,0.00,,,0.00,meteohub,2013-01-15 04:40:00,
2013-01-14 22:45:00,17.2,12.4,30.27,SW,214,6.0,8.0,81,0.00,,,0.00,meteohub,2013-01-15 04:45:00,
2013-01-14 22:50:00,17.2,12.2,30.27,SSW,210,3.0,8.0,80,0.00,,,0.00,meteohub,2013-01-15 04:50:00,
2013-01-14 22:55:00,17.2,12.2,30.27,SSW,210,5.0,7.0,80,0.00,,,0.00,meteohub,2013-01-15 04:55:00,
2013-01-14 23:00:00,17.1,12.2,30.27,SSW,195,7.0,7.0,81,0.00,,,0.00,meteohub,2013-01-15 05:00:00,
2013-01-14 23:01:00,17.1,12.2,30.27,SSW,195,6.0,7.0,81,0.00,,,0.00,meteohub,2013-01-15 05:01:00,
2013-01-14 23:02:00,17.1,12.0,30.27,SSW,206,6.0,7.0,80,0.00,,,0.00,meteohub,2013-01-15 05:02:00,
2013-01-14 23:03:00,17.2,12.2,30.27,SSW,205,5.0,7.0,80,0.00,,,0.00,meteohub,2013-01-15 05:03:00,
2013-01-14 23:08:00,17.2,12.2,30.27,SSW,194,5.0,7.0,80,0.00,,,0.00,meteohub,2013-01-15 05:08:00,
2013-01-14 23:13:00,17.1,12.0,30.27,SSW,194,3.0,8.0,80,0.00,,,0.00,meteohub,2013-01-15 05:13:00,
2013-01-14 23:18:00,16.5,11.7,30.27,SSW,203,5.0,8.0,81,0.00,,,0.00,meteohub,2013-01-15 05:18:00,
2013-01-14 23:23:00,15.8,11.5,30.27,SSW,207,3.0,7.0,83,0.00,,,0.00,meteohub,2013-01-15 05:23:00,
2013-01-14 23:28:00,15.4,11.5,30.27,South,189,3.0,6.0,84,0.00,,,0.00,meteohub,2013-01-15 05:28:00,
2013-01-14 23:33:00,15.3,11.3,30.27,SSW,200,4.0,6.0,84,0.00,,,0.00,meteohub,2013-01-15 05:33:00,
2013-01-14 23:38:00,15.3,11.3,30.27,SSW,200,3.0,5.0,84,0.00,,,0.00,meteohub,2013-01-15 05:38:00,
2013-01-14 23:43:00,15.1,11.1,30.27,SSW,200,2.0,5.0,84,0.00,,,0.00,meteohub,2013-01-15 05:43:00,
2013-01-14 23:48:00,14.5,10.6,30.27,SSW,200,3.0,5.0,84,0.00,,,0.00,meteohub,2013-01-15 05:48:00,
2013-01-14 23:53:00,14.5,10.6,30.27,SSW,200,3.0,4.0,84,0.00,,,0.00,meteohub,2013-01-15 05:53:00,
2013-01-14 23:58:00,14.5,10.6,30.27,SSW,200,3.0,4.0,84,0.00,,,0.00,meteohub,2013-01-15 05:58:00,